createdAt,value
2023-03-16T00:03:12.127Z,100195.15
2023-03-16T00:08:16.704Z,100192.23
2023-03-16T00:13:23.771Z,100196.65
2023-03-16T00:18:28.861Z,100199.67
2023-03-16T00:23:35.484Z,100200.02
2023-03-16T00:28:38.055Z,100199.54
2023-03-16T00:33:42.790Z,100199.48
2023-03-16T00:38:45.522Z,100201.58
2023-03-16T00:43:48.908Z,100199.74
2023-03-16T00:48:51.477Z,100198.81
2023-03-16T00:53:54.089Z,100198.33
2023-03-16T00:58:57.857Z,100194.77
2023-03-16T01:04:01.635Z,100186.95
2023-03-16T01:09:05.555Z,100191.73
2023-03-16T01:14:09.066Z,100194.45
2023-03-16T01:19:15.448Z,100199.40
2023-03-16T01:24:17.940Z,100198.02
2023-03-16T01:29:20.423Z,100197.86
2023-03-16T01:34:23.447Z,100204.49
2023-03-16T01:39:27.307Z,100205.98
2023-03-16T01:44:32.667Z,100203.08
2023-03-16T01:49:37.998Z,100203.79
2023-03-16T01:55:03.213Z,100205.17
2023-03-16T02:00:11.128Z,100212.56
2023-03-16T02:05:25.630Z,100210.53
2023-03-16T02:10:29.739Z,100208.45
2023-03-16T02:15:32.857Z,100202.08
2023-03-16T02:20:53.768Z,100209.23
2023-03-16T02:26:22.938Z,100214.34
2023-03-16T02:31:25.800Z,100217.63
2023-03-16T02:36:29.869Z,100222.08
2023-03-16T02:41:32.880Z,100223.60
2023-03-16T02:46:35.889Z,100227.70
2023-03-16T02:51:38.560Z,100234.39
2023-03-16T02:56:41.930Z,100239.92
2023-03-16T03:01:44.549Z,100247.83
2023-03-16T03:06:47.113Z,100249.91
2023-03-16T03:11:50.602Z,100255.73
2023-03-16T03:16:53.131Z,100254.02
2023-03-16T03:21:58.098Z,100253.35
2023-03-16T03:27:01.138Z,100256.76
2023-03-16T03:32:04.740Z,100249.54
2023-03-16T03:37:07.329Z,100258.20
2023-03-16T03:42:09.943Z,100262.80
2023-03-16T03:47:12.524Z,100266.92
2023-03-16T03:52:15.047Z,100272.40
2023-03-16T03:57:17.525Z,100274.77
2023-03-16T04:02:20.243Z,100271.63
2023-03-16T04:07:23.012Z,100275.89
2023-03-16T04:12:25.576Z,100277.97
2023-03-16T04:17:28.154Z,100277.70
2023-03-16T04:22:31.031Z,100278.06
2023-03-16T04:27:36.446Z,100279.42
2023-03-16T04:32:40.157Z,100281.30
2023-03-16T04:37:42.667Z,100283.70
2023-03-16T04:42:46.880Z,100282.33
2023-03-16T04:47:50.043Z,100282.86
2023-03-16T04:52:52.601Z,100278.73
2023-03-16T04:57:55.091Z,100282.30
2023-03-16T05:02:57.908Z,100284.02
2023-03-16T05:08:01.489Z,100288.50
2023-03-16T05:13:04.853Z,100289.61
2023-03-16T05:18:07.431Z,100290.08
2023-03-16T05:23:09.991Z,100282.34
2023-03-16T05:28:12.519Z,100286.55
2023-03-16T05:33:15.051Z,100292.70
2023-03-16T05:38:18.321Z,100294.79
2023-03-16T05:43:23.651Z,100300.16
2023-03-16T05:48:26.198Z,100302.27
2023-03-16T05:53:29.310Z,100303.88
2023-03-16T05:58:33.924Z,100311.27
2023-03-16T06:03:36.677Z,100310.59
2023-03-16T06:08:39.241Z,100311.48
2023-03-16T06:13:41.742Z,100312.66
2023-03-16T06:18:44.248Z,100313.34
2023-03-16T06:23:46.748Z,100320.63
2023-03-16T06:28:49.244Z,100322.46
2023-03-16T06:33:51.823Z,100326.70
2023-03-16T06:38:54.402Z,100332.13
2023-03-16T06:43:57.279Z,100341.98
2023-03-16T06:49:00.931Z,100336.54
2023-03-16T06:54:03.541Z,100335.39
2023-03-16T06:59:06.449Z,100335.30
2023-03-16T07:04:09.074Z,100337.41
2023-03-16T07:09:12.595Z,100345.19
2023-03-16T07:14:16.562Z,100354.14
2023-03-16T07:19:24.385Z,100358.98
2023-03-16T07:24:27.329Z,100360.38
2023-03-16T07:29:30.235Z,100363.65
2023-03-16T07:34:33.578Z,100367.77
2023-03-16T07:39:37.197Z,100379.65
2023-03-16T07:44:41.759Z,100383.27
2023-03-16T07:49:45.196Z,100395.45
2023-03-16T07:54:50.410Z,100400.24
2023-03-16T07:59:56.030Z,100403.42
2023-03-16T08:04:59.310Z,100402.02
2023-03-16T08:10:04.202Z,100397.11
2023-03-16T08:15:12.797Z,100396.16
2023-03-16T08:20:19.007Z,100409.02
2023-03-16T08:25:25.555Z,100407.89
2023-03-16T08:30:30.649Z,100413.80
2023-03-16T08:35:34.389Z,100424.58
2023-03-16T08:40:41.464Z,100429.72
2023-03-16T08:45:45.863Z,100439.62
2023-03-16T08:50:49.730Z,100440.11
2023-03-16T08:55:53.072Z,100446.75
2023-03-16T09:00:55.921Z,100448.05
2023-03-16T09:06:07.643Z,100456.77
2023-03-16T09:11:18.942Z,100458.45
2023-03-16T09:16:25.518Z,100462.45
2023-03-16T09:21:29.690Z,100457.88
2023-03-16T09:26:33.594Z,100455.20
2023-03-16T09:31:37.466Z,100463.02
2023-03-16T09:36:40.921Z,100474.02
2023-03-16T09:41:58.706Z,100465.52
2023-03-16T09:47:04.632Z,100465.20
2023-03-16T09:53:01.249Z,100466.14
2023-03-16T09:58:17.341Z,100464.45
2023-03-16T10:03:59.062Z,100469.44
2023-03-16T10:09:32.205Z,100468.95
2023-03-16T10:14:56.089Z,100467.45
2023-03-16T10:20:09.300Z,100471.98
2023-03-16T10:25:22.078Z,100472.30
2023-03-16T10:30:33.276Z,100475.61
2023-03-16T10:36:10.540Z,100472.09
2023-03-16T10:41:18.299Z,100474.55
2023-03-16T10:46:24.983Z,100472.98
2023-03-16T10:51:37.275Z,100480.58
2023-03-16T10:56:40.434Z,100480.78
2023-03-16T11:01:49.943Z,100483.20
2023-03-16T11:06:57.612Z,100480.35
2023-03-16T11:12:14.065Z,100485.95
2023-03-16T11:17:33.012Z,100488.52
2023-03-16T11:22:38.213Z,100495.91
2023-03-16T11:27:47.501Z,100499.55
2023-03-16T11:32:53.926Z,100503.48
2023-03-16T11:38:09.403Z,100500.13
2023-03-16T11:43:31.451Z,100502.20
2023-03-16T11:48:44.809Z,100500.27
2023-03-16T11:54:07.980Z,100501.56
2023-03-16T11:59:17.619Z,100507.70
2023-03-16T12:04:40.228Z,100507.46
2023-03-16T12:10:02.320Z,100512.86
2023-03-16T12:15:27.738Z,100525.73
2023-03-16T12:20:41.789Z,100520.59
2023-03-16T12:25:47.574Z,100525.52
2023-03-16T12:31:05.980Z,100530.42
2023-03-16T12:36:42.739Z,100538.03
2023-03-16T12:42:04.439Z,100532.75
2023-03-16T12:47:43.759Z,100537.13
2023-03-16T12:52:52.821Z,100541.23
2023-03-16T12:58:02.498Z,100541.61
2023-03-16T13:03:11.989Z,100549.18
2023-03-16T13:08:19.039Z,100551.04
2023-03-16T13:13:25.538Z,100560.08
2023-03-16T13:18:41.657Z,100558.69
2023-03-16T13:24:15.783Z,100557.75
2023-03-16T13:29:23.899Z,100562.43
2023-03-16T13:34:38.092Z,100574.52
2023-03-16T13:39:41.700Z,100576.00
2023-03-16T13:44:44.740Z,100571.34
2023-03-16T13:49:58.340Z,100575.54
2023-03-16T13:55:15.278Z,100580.95
2023-03-16T14:00:32.339Z,100585.04
2023-03-16T14:05:36.244Z,100590.60
2023-03-16T14:10:40.288Z,100590.59
2023-03-16T14:15:45.305Z,100591.98
2023-03-16T14:20:53.410Z,100594.02
2023-03-16T14:25:56.070Z,100600.16
2023-03-16T14:31:07.632Z,100594.95
2023-03-16T14:36:13.210Z,100595.45
2023-03-16T14:41:27.017Z,100593.75
2023-03-16T14:46:33.773Z,100589.55
2023-03-16T14:51:39.731Z,100596.10
2023-03-16T14:56:43.707Z,100595.68
2023-03-16T15:01:48.254Z,100599.29
2023-03-16T15:06:50.909Z,100605.07
2023-03-16T15:11:55.483Z,100605.15
2023-03-16T15:16:58.499Z,100605.65
2023-03-16T15:22:02.958Z,100604.86
2023-03-16T15:27:18.693Z,100605.99
2023-03-16T15:32:21.231Z,100605.51
2023-03-16T15:37:27.423Z,100606.64
2023-03-16T15:42:29.945Z,100612.58
2023-03-16T15:47:32.431Z,100620.84
2023-03-16T15:52:38.008Z,100624.48
2023-03-16T15:57:41.225Z,100624.36
2023-03-16T16:02:44.476Z,100629.89
2023-03-16T16:07:47.335Z,100625.20
2023-03-16T16:12:52.633Z,100635.95
2023-03-16T16:18:19.652Z,100640.55
2023-03-16T16:23:19.981Z,100650.73
2023-03-16T16:28:26.988Z,100650.52
2023-03-16T16:33:34.992Z,100652.63
2023-03-16T16:38:37.502Z,100659.36
2023-03-16T16:43:44.448Z,100662.27
2023-03-16T16:48:49.992Z,100678.29
2023-03-16T16:53:55.146Z,100678.44
2023-03-16T16:59:01.518Z,100680.64
2023-03-16T17:04:04.021Z,100684.55
2023-03-16T17:09:06.791Z,100687.92
2023-03-16T17:14:17.278Z,100696.48
2023-03-16T17:19:23.266Z,100697.79
2023-03-16T17:24:26.081Z,100698.70
2023-03-16T17:29:33.065Z,100705.95
2023-03-16T17:34:35.833Z,100709.96
2023-03-16T17:39:48.953Z,100713.61
2023-03-16T17:44:53.156Z,100717.95
2023-03-16T17:49:56.877Z,100717.13
2023-03-16T17:54:59.453Z,100718.71
2023-03-16T18:00:08.853Z,100727.20
2023-03-16T18:05:33.460Z,100736.27
2023-03-16T18:10:36.492Z,100740.94
2023-03-16T18:15:39.375Z,100740.07
2023-03-16T18:20:42.288Z,100743.30
2023-03-16T18:25:45.660Z,100748.65
2023-03-16T18:30:54.369Z,100756.97
2023-03-16T18:36:01.164Z,100758.95
2023-03-16T18:41:25.912Z,100769.67
2023-03-16T18:46:31.379Z,100770.48
2023-03-16T18:51:34.606Z,100770.11
2023-03-16T18:56:37.599Z,100781.42
2023-03-16T19:01:43.056Z,100788.40
2023-03-16T19:06:45.896Z,100792.63
2023-03-16T19:11:49.650Z,100797.73
2023-03-16T19:16:53.445Z,100802.13
2023-03-16T19:22:01.581Z,100807.04
2023-03-16T19:27:14.119Z,100812.95
2023-03-16T19:32:18.851Z,100813.17
2023-03-16T19:37:23.821Z,100820.98
2023-03-16T19:42:31.042Z,100818.42
2023-03-16T19:47:34.956Z,100816.89
2023-03-16T19:52:37.478Z,100819.12
2023-03-16T19:57:40.224Z,100822.23
2023-03-16T20:02:42.779Z,100827.21
2023-03-16T20:07:45.580Z,100828.05
2023-03-16T20:12:51.318Z,100826.81
2023-03-16T20:17:54.475Z,100827.61
2023-03-16T20:22:59.588Z,100826.83
2023-03-16T20:28:03.784Z,100831.68
2023-03-16T20:33:06.344Z,100830.13
2023-03-16T20:38:12.755Z,100828.94
2023-03-16T20:43:21.114Z,100825.35
2023-03-16T20:48:26.582Z,100819.00
2023-03-16T20:53:29.069Z,100827.02
2023-03-16T20:58:34.607Z,100820.77
2023-03-16T21:03:39.329Z,100821.04
2023-03-16T21:08:41.865Z,100826.79
2023-03-16T21:13:44.397Z,100828.66
2023-03-16T21:18:47.888Z,100838.41
2023-03-16T21:23:50.536Z,100840.58
2023-03-16T21:28:57.442Z,100846.56
2023-03-16T21:34:00.678Z,100842.50
2023-03-16T21:39:18.304Z,100835.17
2023-03-16T21:44:21.236Z,100837.40
2023-03-16T21:49:23.759Z,100838.73
2023-03-16T21:54:26.443Z,100842.30
2023-03-16T21:59:28.950Z,100847.33
2023-03-16T22:04:31.541Z,100846.20
2023-03-16T22:09:34.110Z,100851.69
2023-03-16T22:14:36.812Z,100857.05
2023-03-16T22:19:39.371Z,100855.06
2023-03-16T22:24:41.929Z,100855.31
2023-03-16T22:29:44.811Z,100853.81
2023-03-16T22:34:57.150Z,100853.77
2023-03-16T22:40:01.697Z,100857.23
2023-03-16T22:45:19.031Z,100865.50
2023-03-16T22:50:22.175Z,100869.92
2023-03-16T22:55:30.327Z,100878.80
2023-03-16T23:00:33.598Z,100883.59
2023-03-16T23:05:36.365Z,100893.48
2023-03-16T23:10:38.997Z,100904.14
2023-03-16T23:15:43.121Z,100910.35
2023-03-16T23:20:47.263Z,100904.48
2023-03-16T23:25:49.827Z,100895.98
2023-03-16T23:30:52.365Z,100893.15
2023-03-16T23:35:54.875Z,100890.02
2023-03-16T23:40:57.448Z,100886.39
2023-03-16T23:46:00.235Z,100877.70
2023-03-16T23:51:03.753Z,100876.92
2023-03-16T23:56:09.711Z,100877.58
